sensor_id;sensor_type;location;lat;lon;timestamp;P1;durP1;ratioP1;P2;durP2;ratioP2
84189;SDS011;74321;53.406;8.146;2024-01-10T00:02:57;39.78;;;17.48;;
84189;SDS011;74321;53.406;8.146;2024-01-10T00:07:58;47.30;;;18.27;;
84189;SDS011;74321;53.406;8.146;2024-01-10T00:13:07;43.67;;;16.70;;
84189;SDS011;74321;53.406;8.146;2024-01-10T00:18:10;38.97;;;17.90;;
84189;SDS011;74321;53.406;8.146;2024-01-10T00:23:12;44.83;;;19.00;;
84189;SDS011;74321;53.406;8.146;2024-01-10T00:28:18;45.90;;;17.48;;
84189;SDS011;74321;53.406;8.146;2024-01-10T00:33:20;45.67;;;18.73;;
84189;SDS011;74321;53.406;8.146;2024-01-10T00:38:22;45.10;;;18.05;;
84189;SDS011;74321;53.406;8.146;2024-01-10T00:43:24;46.28;;;20.58;;
84189;SDS011;74321;53.406;8.146;2024-01-10T00:48:26;50.03;;;20.58;;
84189;SDS011;74321;53.406;8.146;2024-01-10T00:53:28;52.28;;;19.58;;
84189;SDS011;74321;53.406;8.146;2024-01-10T00:58:30;32.40;;;14.00;;
84189;SDS011;74321;53.406;8.146;2024-01-10T01:03:32;45.80;;;18.88;;
84189;SDS011;74321;53.406;8.146;2024-01-10T01:08:34;47.97;;;20.08;;
84189;SDS011;74321;53.406;8.146;2024-01-10T01:13:36;41.15;;;17.73;;
84189;SDS011;74321;53.406;8.146;2024-01-10T01:18:38;50.13;;;18.70;;
84189;SDS011;74321;53.406;8.146;2024-01-10T01:23:40;44.03;;;17.23;;
84189;SDS011;74321;53.406;8.146;2024-01-10T01:28:43;43.00;;;16.40;;
84189;SDS011;74321;53.406;8.146;2024-01-10T01:33:45;49.55;;;20.05;;
84189;SDS011;74321;53.406;8.146;2024-01-10T01:38:48;57.15;;;22.13;;
84189;SDS011;74321;53.406;8.146;2024-01-10T01:43:50;57.97;;;23.10;;
84189;SDS011;74321;53.406;8.146;2024-01-10T01:48:52;36.60;;;18.05;;
84189;SDS011;74321;53.406;8.146;2024-01-10T01:53:54;45.22;;;19.92;;
84189;SDS011;74321;53.406;8.146;2024-01-10T01:58:59;51.15;;;20.63;;
84189;SDS011;74321;53.406;8.146;2024-01-10T02:04:01;112.25;;;27.42;;
84189;SDS011;74321;53.406;8.146;2024-01-10T02:09:04;77.88;;;25.00;;
84189;SDS011;74321;53.406;8.146;2024-01-10T02:14:10;65.05;;;20.95;;
84189;SDS011;74321;53.406;8.146;2024-01-10T02:19:21;85.45;;;19.30;;
84189;SDS011;74321;53.406;8.146;2024-01-10T02:24:25;69.85;;;18.98;;
84189;SDS011;74321;53.406;8.146;2024-01-10T02:29:27;114.35;;;21.80;;
84189;SDS011;74321;53.406;8.146;2024-01-10T02:34:29;66.43;;;20.52;;
84189;SDS011;74321;53.406;8.146;2024-01-10T02:39:32;68.13;;;21.25;;
84189;SDS011;74321;53.406;8.146;2024-01-10T02:44:34;57.92;;;18.75;;
84189;SDS011;74321;53.406;8.146;2024-01-10T02:49:36;46.30;;;18.13;;
84189;SDS011;74321;53.406;8.146;2024-01-10T02:54:38;53.70;;;18.70;;
84189;SDS011;74321;53.406;8.146;2024-01-10T02:59:40;47.63;;;16.00;;
84189;SDS011;74321;53.406;8.146;2024-01-10T03:04:43;60.97;;;12.32;;
84189;SDS011;74321;53.406;8.146;2024-01-10T03:09:46;67.50;;;17.48;;
84189;SDS011;74321;53.406;8.146;2024-01-10T03:14:48;64.25;;;13.85;;
84189;SDS011;74321;53.406;8.146;2024-01-10T03:19:50;75.18;;;14.02;;
84189;SDS011;74321;53.406;8.146;2024-01-10T03:24:52;68.85;;;16.50;;
84189;SDS011;74321;53.406;8.146;2024-01-10T03:29:54;57.50;;;15.35;;
84189;SDS011;74321;53.406;8.146;2024-01-10T03:34:56;56.22;;;13.45;;
84189;SDS011;74321;53.406;8.146;2024-01-10T03:39:58;47.33;;;13.75;;
84189;SDS011;74321;53.406;8.146;2024-01-10T03:45:01;61.05;;;12.13;;
84189;SDS011;74321;53.406;8.146;2024-01-10T03:50:04;47.70;;;15.25;;
84189;SDS011;74321;53.406;8.146;2024-01-10T03:55:07;52.67;;;13.02;;
84189;SDS011;74321;53.406;8.146;2024-01-10T04:00:09;65.15;;;15.02;;
84189;SDS011;74321;53.406;8.146;2024-01-10T04:05:11;73.40;;;11.75;;
84189;SDS011;74321;53.406;8.146;2024-01-10T04:10:15;45.47;;;12.60;;
84189;SDS011;74321;53.406;8.146;2024-01-10T04:15:17;53.05;;;13.45;;
84189;SDS011;74321;53.406;8.146;2024-01-10T04:20:19;48.53;;;15.55;;
84189;SDS011;74321;53.406;8.146;2024-01-10T04:25:22;39.00;;;11.95;;
84189;SDS011;74321;53.406;8.146;2024-01-10T04:30:24;38.83;;;12.45;;
84189;SDS011;74321;53.406;8.146;2024-01-10T04:35:26;32.53;;;9.60;;
84189;SDS011;74321;53.406;8.146;2024-01-10T04:40:28;24.60;;;8.95;;
84189;SDS011;74321;53.406;8.146;2024-01-10T04:45:30;32.97;;;9.70;;
84189;SDS011;74321;53.406;8.146;2024-01-10T04:50:32;34.90;;;10.32;;
84189;SDS011;74321;53.406;8.146;2024-01-10T04:55:36;42.47;;;12.35;;
84189;SDS011;74321;53.406;8.146;2024-01-10T05:00:38;34.25;;;13.23;;
84189;SDS011;74321;53.406;8.146;2024-01-10T05:05:40;48.13;;;13.18;;
84189;SDS011;74321;53.406;8.146;2024-01-10T05:10:42;38.80;;;10.90;;
84189;SDS011;74321;53.406;8.146;2024-01-10T05:15:44;40.63;;;11.73;;
84189;SDS011;74321;53.406;8.146;2024-01-10T05:20:47;39.20;;;11.57;;
84189;SDS011;74321;53.406;8.146;2024-01-10T05:25:49;46.85;;;10.80;;
84189;SDS011;74321;53.406;8.146;2024-01-10T05:30:51;31.35;;;9.18;;
84189;SDS011;74321;53.406;8.146;2024-01-10T05:35:53;36.33;;;11.57;;
84189;SDS011;74321;53.406;8.146;2024-01-10T05:40:55;30.35;;;10.63;;
84189;SDS011;74321;53.406;8.146;2024-01-10T05:45:57;43.42;;;10.75;;
84189;SDS011;74321;53.406;8.146;2024-01-10T05:51:01;20.25;;;8.73;;
84189;SDS011;74321;53.406;8.146;2024-01-10T05:56:05;35.22;;;9.88;;
84189;SDS011;74321;53.406;8.146;2024-01-10T06:01:08;37.03;;;10.57;;
84189;SDS011;74321;53.406;8.146;2024-01-10T06:06:12;35.05;;;11.57;;
84189;SDS011;74321;53.406;8.146;2024-01-10T06:11:14;33.03;;;8.77;;
84189;SDS011;74321;53.406;8.146;2024-01-10T06:16:16;31.88;;;8.73;;
84189;SDS011;74321;53.406;8.146;2024-01-10T06:21:18;30.27;;;9.32;;
84189;SDS011;74321;53.406;8.146;2024-01-10T06:26:20;37.33;;;12.15;;
84189;SDS011;74321;53.406;8.146;2024-01-10T06:31:26;30.05;;;9.73;;
84189;SDS011;74321;53.406;8.146;2024-01-10T06:36:28;28.38;;;9.20;;
84189;SDS011;74321;53.406;8.146;2024-01-10T06:41:30;28.27;;;9.85;;
84189;SDS011;74321;53.406;8.146;2024-01-10T06:46:33;30.52;;;9.80;;
84189;SDS011;74321;53.406;8.146;2024-01-10T06:51:35;31.92;;;10.52;;
84189;SDS011;74321;53.406;8.146;2024-01-10T06:56:37;29.38;;;9.73;;
84189;SDS011;74321;53.406;8.146;2024-01-10T07:01:39;26.85;;;9.65;;
84189;SDS011;74321;53.406;8.146;2024-01-10T07:06:41;32.60;;;10.77;;
84189;SDS011;74321;53.406;8.146;2024-01-10T07:11:46;25.67;;;8.32;;
84189;SDS011;74321;53.406;8.146;2024-01-10T07:16:49;29.98;;;10.00;;
84189;SDS011;74321;53.406;8.146;2024-01-10T07:21:51;38.72;;;12.82;;
84189;SDS011;74321;53.406;8.146;2024-01-10T07:26:55;36.17;;;13.20;;
84189;SDS011;74321;53.406;8.146;2024-01-10T07:31:58;27.08;;;10.30;;
84189;SDS011;74321;53.406;8.146;2024-01-10T07:37:00;38.28;;;10.60;;
84189;SDS011;74321;53.406;8.146;2024-01-10T07:42:02;34.28;;;12.68;;
84189;SDS011;74321;53.406;8.146;2024-01-10T07:47:05;24.58;;;9.65;;
84189;SDS011;74321;53.406;8.146;2024-01-10T07:52:09;33.28;;;10.98;;
84189;SDS011;74321;53.406;8.146;2024-01-10T07:57:11;32.33;;;11.45;;
84189;SDS011;74321;53.406;8.146;2024-01-10T08:02:13;33.10;;;10.02;;
84189;SDS011;74321;53.406;8.146;2024-01-10T08:07:15;39.65;;;11.23;;
84189;SDS011;74321;53.406;8.146;2024-01-10T08:12:17;37.17;;;11.55;;
84189;SDS011;74321;53.406;8.146;2024-01-10T08:17:19;37.08;;;11.88;;
84189;SDS011;74321;53.406;8.146;2024-01-10T08:22:21;29.42;;;10.45;;
84189;SDS011;74321;53.406;8.146;2024-01-10T08:27:28;26.55;;;9.73;;
84189;SDS011;74321;53.406;8.146;2024-01-10T08:32:30;31.92;;;11.48;;
84189;SDS011;74321;53.406;8.146;2024-01-10T08:37:35;43.22;;;11.88;;
84189;SDS011;74321;53.406;8.146;2024-01-10T08:42:37;30.40;;;11.90;;
84189;SDS011;74321;53.406;8.146;2024-01-10T08:47:40;23.85;;;8.82;;
84189;SDS011;74321;53.406;8.146;2024-01-10T08:52:42;36.20;;;11.80;;
84189;SDS011;74321;53.406;8.146;2024-01-10T08:57:44;32.40;;;10.02;;
84189;SDS011;74321;53.406;8.146;2024-01-10T09:02:46;37.67;;;13.80;;
84189;SDS011;74321;53.406;8.146;2024-01-10T09:07:48;28.98;;;10.50;;
84189;SDS011;74321;53.406;8.146;2024-01-10T09:12:51;30.83;;;11.20;;
84189;SDS011;74321;53.406;8.146;2024-01-10T09:17:53;27.27;;;10.13;;
84189;SDS011;74321;53.406;8.146;2024-01-10T09:22:55;28.58;;;11.80;;
84189;SDS011;74321;53.406;8.146;2024-01-10T09:27:57;29.20;;;12.88;;
84189;SDS011;74321;53.406;8.146;2024-01-10T09:32:59;32.97;;;12.85;;
84189;SDS011;74321;53.406;8.146;2024-01-10T09:38:02;28.27;;;10.98;;
84189;SDS011;74321;53.406;8.146;2024-01-10T09:43:07;23.52;;;8.30;;
84189;SDS011;74321;53.406;8.146;2024-01-10T09:48:09;31.58;;;12.85;;
84189;SDS011;74321;53.406;8.146;2024-01-10T09:53:13;22.17;;;10.02;;
84189;SDS011;74321;53.406;8.146;2024-01-10T09:58:23;30.25;;;11.70;;
84189;SDS011;74321;53.406;8.146;2024-01-10T10:03:28;28.55;;;12.73;;
84189;SDS011;74321;53.406;8.146;2024-01-10T10:08:30;36.10;;;12.10;;
84189;SDS011;74321;53.406;8.146;2024-01-10T10:13:32;35.15;;;13.57;;
84189;SDS011;74321;53.406;8.146;2024-01-10T10:18:37;29.52;;;11.73;;
84189;SDS011;74321;53.406;8.146;2024-01-10T10:23:39;25.05;;;11.20;;
84189;SDS011;74321;53.406;8.146;2024-01-10T10:28:43;24.75;;;9.75;;
84189;SDS011;74321;53.406;8.146;2024-01-10T10:33:45;21.83;;;10.77;;
84189;SDS011;74321;53.406;8.146;2024-01-10T10:38:49;18.75;;;9.55;;
84189;SDS011;74321;53.406;8.146;2024-01-10T10:43:51;21.50;;;9.98;;
84189;SDS011;74321;53.406;8.146;2024-01-10T10:48:57;18.05;;;9.20;;
84189;SDS011;74321;53.406;8.146;2024-01-10T10:54:02;18.55;;;9.30;;
84189;SDS011;74321;53.406;8.146;2024-01-10T10:59:05;20.10;;;10.63;;
84189;SDS011;74321;53.406;8.146;2024-01-10T11:04:09;23.80;;;11.10;;
84189;SDS011;74321;53.406;8.146;2024-01-10T11:09:13;20.25;;;10.43;;
84189;SDS011;74321;53.406;8.146;2024-01-10T11:20:47;17.98;;;9.90;;
84189;SDS011;74321;53.406;8.146;2024-01-10T11:25:31;18.95;;;10.48;;
84189;SDS011;74321;53.406;8.146;2024-01-10T11:30:34;16.73;;;9.82;;
84189;SDS011;74321;53.406;8.146;2024-01-10T11:35:37;18.50;;;10.52;;
84189;SDS011;74321;53.406;8.146;2024-01-10T11:40:45;21.23;;;10.60;;
84189;SDS011;74321;53.406;8.146;2024-01-10T11:45:51;17.17;;;9.02;;
84189;SDS011;74321;53.406;8.146;2024-01-10T11:50:57;20.13;;;10.48;;
84189;SDS011;74321;53.406;8.146;2024-01-10T11:56:00;16.52;;;9.27;;
84189;SDS011;74321;53.406;8.146;2024-01-10T12:01:12;17.05;;;9.13;;
84189;SDS011;74321;53.406;8.146;2024-01-10T12:06:17;15.25;;;8.50;;
84189;SDS011;74321;53.406;8.146;2024-01-10T12:11:21;18.48;;;10.05;;
84189;SDS011;74321;53.406;8.146;2024-01-10T12:16:24;17.25;;;9.50;;
84189;SDS011;74321;53.406;8.146;2024-01-10T12:21:26;18.35;;;9.77;;
84189;SDS011;74321;53.406;8.146;2024-01-10T12:26:28;17.13;;;8.93;;
84189;SDS011;74321;53.406;8.146;2024-01-10T12:31:31;15.18;;;9.18;;
84189;SDS011;74321;53.406;8.146;2024-01-10T12:36:33;16.75;;;9.20;;
84189;SDS011;74321;53.406;8.146;2024-01-10T12:41:35;18.80;;;10.45;;
84189;SDS011;74321;53.406;8.146;2024-01-10T12:46:48;17.08;;;9.23;;
84189;SDS011;74321;53.406;8.146;2024-01-10T12:51:52;19.08;;;10.48;;
84189;SDS011;74321;53.406;8.146;2024-01-10T12:56:54;18.70;;;9.88;;
84189;SDS011;74321;53.406;8.146;2024-01-10T13:01:58;25.92;;;10.30;;
84189;SDS011;74321;53.406;8.146;2024-01-10T13:07:01;21.75;;;9.82;;
84189;SDS011;74321;53.406;8.146;2024-01-10T13:12:03;24.33;;;10.13;;
84189;SDS011;74321;53.406;8.146;2024-01-10T13:17:08;19.85;;;9.02;;
84189;SDS011;74321;53.406;8.146;2024-01-10T13:22:10;19.60;;;10.55;;
84189;SDS011;74321;53.406;8.146;2024-01-10T13:27:17;25.00;;;10.77;;
84189;SDS011;74321;53.406;8.146;2024-01-10T13:32:25;21.00;;;8.60;;
84189;SDS011;74321;53.406;8.146;2024-01-10T13:37:30;20.67;;;9.45;;
84189;SDS011;74321;53.406;8.146;2024-01-10T13:42:34;18.98;;;8.60;;
84189;SDS011;74321;53.406;8.146;2024-01-10T13:47:39;21.25;;;8.27;;
84189;SDS011;74321;53.406;8.146;2024-01-10T13:52:48;18.23;;;8.00;;
84189;SDS011;74321;53.406;8.146;2024-01-10T13:57:50;16.58;;;7.40;;
84189;SDS011;74321;53.406;8.146;2024-01-10T14:02:53;20.00;;;9.02;;
84189;SDS011;74321;53.406;8.146;2024-01-10T14:08:00;17.55;;;8.68;;
84189;SDS011;74321;53.406;8.146;2024-01-10T14:13:02;21.13;;;8.95;;
84189;SDS011;74321;53.406;8.146;2024-01-10T14:18:05;19.13;;;8.20;;
84189;SDS011;74321;53.406;8.146;2024-01-10T14:23:07;23.98;;;9.70;;
84189;SDS011;74321;53.406;8.146;2024-01-10T14:28:10;19.13;;;8.75;;
84189;SDS011;74321;53.406;8.146;2024-01-10T14:33:26;18.55;;;7.53;;
84189;SDS011;74321;53.406;8.146;2024-01-10T14:38:28;18.27;;;8.23;;
84189;SDS011;74321;53.406;8.146;2024-01-10T14:43:35;18.85;;;6.75;;
84189;SDS011;74321;53.406;8.146;2024-01-10T14:48:39;19.98;;;8.27;;
84189;SDS011;74321;53.406;8.146;2024-01-10T14:53:45;19.42;;;7.35;;
84189;SDS011;74321;53.406;8.146;2024-01-10T14:58:47;17.55;;;7.57;;
84189;SDS011;74321;53.406;8.146;2024-01-10T15:03:49;17.05;;;7.82;;
84189;SDS011;74321;53.406;8.146;2024-01-10T15:08:53;19.83;;;7.38;;
84189;SDS011;74321;53.406;8.146;2024-01-10T15:13:55;17.55;;;7.68;;
84189;SDS011;74321;53.406;8.146;2024-01-10T15:18:58;20.98;;;7.65;;
84189;SDS011;74321;53.406;8.146;2024-01-10T15:24:07;17.90;;;7.28;;
84189;SDS011;74321;53.406;8.146;2024-01-10T15:29:09;19.17;;;7.75;;
84189;SDS011;74321;53.406;8.146;2024-01-10T15:34:15;18.55;;;8.05;;
84189;SDS011;74321;53.406;8.146;2024-01-10T15:39:17;22.48;;;9.65;;
84189;SDS011;74321;53.406;8.146;2024-01-10T15:44:22;16.73;;;7.50;;
84189;SDS011;74321;53.406;8.146;2024-01-10T15:49:24;20.00;;;8.60;;
84189;SDS011;74321;53.406;8.146;2024-01-10T15:54:27;17.02;;;7.55;;
84189;SDS011;74321;53.406;8.146;2024-01-10T15:59:29;16.42;;;7.20;;
84189;SDS011;74321;53.406;8.146;2024-01-10T16:04:32;14.32;;;7.63;;
84189;SDS011;74321;53.406;8.146;2024-01-10T16:09:35;16.55;;;7.75;;
84189;SDS011;74321;53.406;8.146;2024-01-10T16:14:38;19.90;;;6.80;;
84189;SDS011;74321;53.406;8.146;2024-01-10T16:19:41;19.55;;;9.55;;
84189;SDS011;74321;53.406;8.146;2024-01-10T16:24:43;22.48;;;9.50;;
84189;SDS011;74321;53.406;8.146;2024-01-10T16:29:55;19.05;;;8.02;;
84189;SDS011;74321;53.406;8.146;2024-01-10T16:40:04;22.65;;;9.27;;
84189;SDS011;74321;53.406;8.146;2024-01-10T16:45:07;26.90;;;10.35;;
84189;SDS011;74321;53.406;8.146;2024-01-10T16:50:09;24.42;;;10.85;;
84189;SDS011;74321;53.406;8.146;2024-01-10T16:55:12;23.95;;;10.43;;
84189;SDS011;74321;53.406;8.146;2024-01-10T17:00:16;24.15;;;10.02;;
84189;SDS011;74321;53.406;8.146;2024-01-10T17:05:18;26.63;;;11.10;;
84189;SDS011;74321;53.406;8.146;2024-01-10T17:10:41;30.48;;;10.75;;
84189;SDS011;74321;53.406;8.146;2024-01-10T17:15:47;30.23;;;12.52;;
84189;SDS011;74321;53.406;8.146;2024-01-10T17:20:49;28.70;;;10.80;;
84189;SDS011;74321;53.406;8.146;2024-01-10T17:25:51;24.40;;;10.93;;
84189;SDS011;74321;53.406;8.146;2024-01-10T17:30:59;25.02;;;9.90;;
84189;SDS011;74321;53.406;8.146;2024-01-10T17:36:04;27.67;;;11.40;;
84189;SDS011;74321;53.406;8.146;2024-01-10T17:41:06;26.40;;;10.43;;
84189;SDS011;74321;53.406;8.146;2024-01-10T17:46:08;26.50;;;10.63;;
84189;SDS011;74321;53.406;8.146;2024-01-10T17:51:10;31.67;;;10.60;;
84189;SDS011;74321;53.406;8.146;2024-01-10T17:56:12;31.85;;;11.25;;
84189;SDS011;74321;53.406;8.146;2024-01-10T18:01:14;28.02;;;11.82;;
84189;SDS011;74321;53.406;8.146;2024-01-10T18:06:19;22.17;;;9.45;;
84189;SDS011;74321;53.406;8.146;2024-01-10T18:11:21;25.38;;;10.63;;
84189;SDS011;74321;53.406;8.146;2024-01-10T18:16:25;31.25;;;11.93;;
84189;SDS011;74321;53.406;8.146;2024-01-10T18:21:30;31.88;;;12.02;;
84189;SDS011;74321;53.406;8.146;2024-01-10T18:26:32;31.88;;;12.13;;
84189;SDS011;74321;53.406;8.146;2024-01-10T18:31:34;32.00;;;12.85;;
84189;SDS011;74321;53.406;8.146;2024-01-10T18:36:36;31.30;;;10.32;;
84189;SDS011;74321;53.406;8.146;2024-01-10T18:41:39;30.80;;;11.20;;
84189;SDS011;74321;53.406;8.146;2024-01-10T18:46:41;31.80;;;12.60;;
84189;SDS011;74321;53.406;8.146;2024-01-10T18:51:43;33.03;;;13.07;;
84189;SDS011;74321;53.406;8.146;2024-01-10T18:56:45;29.63;;;11.98;;
84189;SDS011;74321;53.406;8.146;2024-01-10T19:01:47;30.30;;;13.40;;
84189;SDS011;74321;53.406;8.146;2024-01-10T19:06:49;29.17;;;11.88;;
84189;SDS011;74321;53.406;8.146;2024-01-10T19:11:55;36.33;;;11.18;;
84189;SDS011;74321;53.406;8.146;2024-01-10T19:17:00;35.40;;;13.00;;
84189;SDS011;74321;53.406;8.146;2024-01-10T19:22:03;35.08;;;12.23;;
84189;SDS011;74321;53.406;8.146;2024-01-10T19:27:08;35.38;;;10.98;;
84189;SDS011;74321;53.406;8.146;2024-01-10T19:32:10;33.63;;;12.23;;
84189;SDS011;74321;53.406;8.146;2024-01-10T19:37:16;34.78;;;13.07;;
84189;SDS011;74321;53.406;8.146;2024-01-10T19:42:23;37.75;;;13.13;;
84189;SDS011;74321;53.406;8.146;2024-01-10T19:47:28;33.10;;;11.63;;
84189;SDS011;74321;53.406;8.146;2024-01-10T19:52:30;33.90;;;12.30;;
84189;SDS011;74321;53.406;8.146;2024-01-10T19:57:33;33.78;;;11.48;;
84189;SDS011;74321;53.406;8.146;2024-01-10T20:02:39;28.30;;;9.77;;
84189;SDS011;74321;53.406;8.146;2024-01-10T20:07:41;29.90;;;10.85;;
84189;SDS011;74321;53.406;8.146;2024-01-10T20:12:43;30.27;;;11.57;;
84189;SDS011;74321;53.406;8.146;2024-01-10T20:17:48;26.50;;;11.63;;
84189;SDS011;74321;53.406;8.146;2024-01-10T20:22:50;36.72;;;12.52;;
84189;SDS011;74321;53.406;8.146;2024-01-10T20:27:59;31.40;;;12.77;;
84189;SDS011;74321;53.406;8.146;2024-01-10T20:33:02;28.98;;;12.05;;
84189;SDS011;74321;53.406;8.146;2024-01-10T20:38:05;31.27;;;12.75;;
84189;SDS011;74321;53.406;8.146;2024-01-10T20:43:07;34.20;;;15.25;;
84189;SDS011;74321;53.406;8.146;2024-01-10T20:48:11;38.50;;;16.05;;
84189;SDS011;74321;53.406;8.146;2024-01-10T20:53:14;42.95;;;16.45;;
84189;SDS011;74321;53.406;8.146;2024-01-10T20:58:17;39.10;;;15.27;;
84189;SDS011;74321;53.406;8.146;2024-01-10T21:03:20;32.38;;;13.90;;
84189;SDS011;74321;53.406;8.146;2024-01-10T21:08:22;44.58;;;17.58;;
84189;SDS011;74321;53.406;8.146;2024-01-10T21:13:24;45.38;;;16.13;;
84189;SDS011;74321;53.406;8.146;2024-01-10T21:18:26;36.00;;;14.55;;
84189;SDS011;74321;53.406;8.146;2024-01-10T21:23:28;43.15;;;15.98;;
84189;SDS011;74321;53.406;8.146;2024-01-10T21:28:32;36.53;;;16.00;;
84189;SDS011;74321;53.406;8.146;2024-01-10T21:33:42;33.50;;;13.93;;
84189;SDS011;74321;53.406;8.146;2024-01-10T21:38:44;42.85;;;14.60;;
84189;SDS011;74321;53.406;8.146;2024-01-10T21:43:47;30.58;;;12.55;;
84189;SDS011;74321;53.406;8.146;2024-01-10T21:48:49;43.85;;;13.95;;
84189;SDS011;74321;53.406;8.146;2024-01-10T21:53:51;40.42;;;14.73;;
84189;SDS011;74321;53.406;8.146;2024-01-10T21:58:53;46.53;;;16.02;;
84189;SDS011;74321;53.406;8.146;2024-01-10T22:03:58;50.42;;;16.35;;
84189;SDS011;74321;53.406;8.146;2024-01-10T22:09:00;75.68;;;21.63;;
84189;SDS011;74321;53.406;8.146;2024-01-10T22:14:02;69.68;;;21.45;;
84189;SDS011;74321;53.406;8.146;2024-01-10T22:19:06;74.85;;;21.80;;
84189;SDS011;74321;53.406;8.146;2024-01-10T22:24:09;94.55;;;26.63;;
84189;SDS011;74321;53.406;8.146;2024-01-10T22:29:11;56.78;;;20.95;;
84189;SDS011;74321;53.406;8.146;2024-01-10T22:34:13;71.07;;;21.55;;
84189;SDS011;74321;53.406;8.146;2024-01-10T22:39:17;64.15;;;18.95;;
84189;SDS011;74321;53.406;8.146;2024-01-10T22:44:22;66.90;;;21.77;;
84189;SDS011;74321;53.406;8.146;2024-01-10T22:49:27;68.20;;;17.65;;
84189;SDS011;74321;53.406;8.146;2024-01-10T22:54:29;94.00;;;19.90;;
84189;SDS011;74321;53.406;8.146;2024-01-10T22:59:31;70.85;;;17.35;;
84189;SDS011;74321;53.406;8.146;2024-01-10T23:04:33;56.88;;;17.02;;
84189;SDS011;74321;53.406;8.146;2024-01-10T23:09:35;60.80;;;18.40;;
84189;SDS011;74321;53.406;8.146;2024-01-10T23:14:40;72.75;;;19.98;;
84189;SDS011;74321;53.406;8.146;2024-01-10T23:19:43;100.05;;;20.40;;
84189;SDS011;74321;53.406;8.146;2024-01-10T23:24:47;49.97;;;16.40;;
84189;SDS011;74321;53.406;8.146;2024-01-10T23:29:58;70.25;;;18.55;;
84189;SDS011;74321;53.406;8.146;2024-01-10T23:35:07;47.47;;;13.98;;
84189;SDS011;74321;53.406;8.146;2024-01-10T23:40:09;56.10;;;17.85;;
84189;SDS011;74321;53.406;8.146;2024-01-10T23:45:12;44.55;;;16.88;;
84189;SDS011;74321;53.406;8.146;2024-01-10T23:50:15;42.42;;;15.07;;
84189;SDS011;74321;53.406;8.146;2024-01-10T23:55:17;45.20;;;15.73;;
